Time;durP1;ratioP1;P1;durP2;ratioP2;P2;SDS_P1;SDS_P2;PMS_P1;PMS_P2;Temp;Humidity;BMP_temperature;BMP_pressure;BME280_temperature;BME280_humidity;BME280_pressure;Samples;Min_cycle;Max_cycle;Signal;HPM_P1;HPM_P2
2021/05/02 00:01:15;;;;;;;9.55;6.62;;;;;;;13.42;96.81;98888.16;1757450;81;20943;-71
2021/05/02 00:03:44;;;;;;;9.88;6.65;;;;;;;13.39;96.78;98883.34;1757431;81;21513;-71
2021/05/02 00:06:12;;;;;;;7.85;5.87;;;;;;;13.37;97.17;98880.14;1757351;81;21018;-71
2021/05/02 00:08:41;;;;;;;9.98;6.40;;;;;;;13.37;97.31;98878.76;1757363;81;20927;-71
2021/05/02 00:11:10;;;;;;;9.78;6.78;;;;;;;13.38;97.39;98877.61;1757397;80;20927;-71
2021/05/02 00:13:39;;;;;;;9.30;7.10;;;;;;;13.38;97.57;98878.41;1757473;81;21479;-71
2021/05/02 00:16:07;;;;;;;10.00;6.40;;;;;;;13.38;97.58;98872.09;1757369;81;21341;-71
2021/05/02 00:18:35;;;;;;;8.40;6.65;;;;;;;13.38;97.63;98864.63;1757328;81;21154;-72
2021/05/02 00:21:07;;;;;;;7.22;5.45;;;;;;;13.39;97.50;98859.34;1757340;81;21175;-71
2021/05/02 00:23:36;;;;;;;9.15;5.70;;;;;;;13.38;97.31;98866.00;1757500;81;20982;-71
2021/05/02 00:26:04;;;;;;;8.00;5.62;;;;;;;13.36;97.28;98851.77;1757403;81;20986;-72
2021/05/02 00:28:33;;;;;;;13.50;6.30;;;;;;;13.35;97.39;98844.66;1757395;81;22433;-73
2021/05/02 00:31:05;;;;;;;8.03;6.05;;;;;;;13.35;97.53;98851.55;1757310;81;20933;-72
2021/05/02 00:33:35;;;;;;;9.28;5.80;;;;;;;13.35;97.45;98849.36;1757513;81;21018;-72
2021/05/02 00:36:06;;;;;;;9.30;5.97;;;;;;;13.34;97.52;98856.03;1757341;81;21026;-71
2021/05/02 00:38:36;;;;;;;9.40;6.00;;;;;;;13.33;97.58;98848.91;1757436;81;21132;-71
2021/05/02 00:41:13;;;;;;;8.10;5.90;;;;;;;13.33;97.80;98847.53;1757338;81;21361;-71
2021/05/02 00:43:57;;;;;;;8.20;5.80;;;;;;;13.32;97.83;98845.35;1757433;81;21045;-70
2021/05/02 00:46:35;;;;;;;8.60;6.40;;;;;;;13.32;97.86;98856.95;1757498;81;21553;-72
2021/05/02 00:49:16;;;;;;;10.20;5.87;;;;;;;13.32;97.93;98852.24;1747875;81;21021;-71
2021/05/02 00:51:55;;;;;;;7.62;5.50;;;;;;;13.32;98.05;98854.20;1757341;81;20970;-71
2021/05/02 00:54:30;;;;;;;8.35;5.72;;;;;;;13.30;98.13;98843.52;1757089;81;23516;-70
2021/05/02 00:57:02;;;;;;;9.58;5.58;;;;;;;13.29;98.13;98852.14;1757325;81;20942;-70
2021/05/02 00:59:54;;;;;;;11.80;6.75;;;;;;;13.26;98.10;98848.73;1757629;81;21494;-71
2021/05/02 01:02:22;;;;;;;11.27;6.43;;;;;;;13.16;98.12;98850.03;1757549;81;21205;-71
2021/05/02 01:04:50;;;;;;;12.82;6.53;;;;;;;13.16;98.12;98850.03;1757372;81;21053;-72
2021/05/02 01:07:22;;;;;;;10.08;6.35;;;;;;;13.11;98.23;98848.87;1738544;81;20958;-74
2021/05/02 01:09:50;;;;;;;8.50;6.25;;;;;;;13.07;98.58;98850.14;1757332;81;21073;-73
2021/05/02 01:12:19;;;;;;;9.58;7.08;;;;;;;13.04;98.84;98848.66;1757306;81;20899;-74
2021/05/02 01:14:52;;;;;;;8.15;6.78;;;;;;;13.00;99.11;98845.80;1757253;81;21081;-74
2021/05/02 01:17:20;;;;;;;11.88;6.42;;;;;;;12.97;99.45;98842.36;1757488;81;21509;-73
2021/05/02 01:19:48;;;;;;;9.60;7.00;;;;;;;12.95;99.90;98839.15;1757335;81;21347;-74
2021/05/02 01:22:18;;;;;;;13.83;6.95;;;;;;;12.94;100.00;98836.17;1757283;81;21065;-73
2021/05/02 01:24:51;;;;;;;8.23;6.10;;;;;;;12.95;100.00;98839.73;1757458;81;21545;-74
2021/05/02 01:27:30;;;;;;;12.37;5.80;;;;;;;12.98;100.00;98841.78;1757401;81;21434;-75
2021/05/02 01:29:59;;;;;;;9.63;6.30;;;;;;;13.01;100.00;98839.70;1757399;81;20939;-74
2021/05/02 01:32:27;;;;;;;9.68;6.20;;;;;;;13.03;100.00;98834.08;1757335;81;21243;-74
2021/05/02 01:34:56;;;;;;;13.58;8.40;;;;;;;13.06;100.00;98823.73;1757220;81;21536;-74
2021/05/02 01:37:23;;;;;;;14.05;6.53;;;;;;;13.07;100.00;98818.45;1757397;81;20986;-74
2021/05/02 01:39:51;;;;;;;10.32;7.33;;;;;;;13.08;100.00;98815.92;1757328;81;21053;-74
2021/05/02 01:42:18;;;;;;;11.05;7.30;;;;;;;13.09;100.00;98796.86;1757469;81;21505;-74
2021/05/02 01:44:45;;;;;;;9.18;6.53;;;;;;;13.09;100.00;98792.73;1757322;81;21749;-72
2021/05/02 01:47:18;;;;;;;11.63;6.87;;;;;;;13.09;100.00;98791.35;1757245;81;21030;-71
2021/05/02 01:49:55;;;;;;;11.20;7.90;;;;;;;13.11;100.00;98786.87;1757436;81;21525;-72
2021/05/02 01:52:23;;;;;;;19.25;11.90;;;;;;;13.11;100.00;98782.73;1757241;81;20994;-72
2021/05/02 01:54:51;;;;;;;15.25;9.13;;;;;;;13.09;100.00;98783.09;1757197;80;21061;-72
2021/05/02 01:57:28;;;;;;;10.88;7.45;;;;;;;13.08;100.00;98774.59;1738408;81;21163;-71
2021/05/02 02:00:00;;;;;;;9.93;7.45;;;;;;;13.08;100.00;98777.34;1757291;80;20990;-70
2021/05/02 02:02:28;;;;;;;12.63;7.85;;;;;;;13.06;100.00;98774.14;1757486;81;21069;-71
2021/05/02 02:04:57;;;;;;;11.03;7.83;;;;;;;13.06;100.00;98778.84;1738387;81;20998;-72
2021/05/02 02:07:24;;;;;;;13.40;7.10;;;;;;;13.05;100.00;98780.00;1757330;81;21576;-73
2021/05/02 02:09:52;;;;;;;11.33;7.55;;;;;;;13.04;100.00;98784.71;1757297;81;21122;-72
2021/05/02 02:12:20;;;;;;;12.37;8.10;;;;;;;13.03;100.00;98776.22;1757320;81;21488;-72
2021/05/02 02:14:51;;;;;;;9.95;7.03;;;;;;;13.00;100.00;98776.92;1757251;81;20906;-72
2021/05/02 02:17:19;;;;;;;11.38;7.50;;;;;;;12.98;100.00;98770.95;1757357;81;21477;-73
2021/05/02 02:19:47;;;;;;;10.05;6.72;;;;;;;12.96;100.00;98779.34;1757437;81;21478;-72
2021/05/02 02:22:15;;;;;;;10.63;6.22;;;;;;;12.93;100.00;98770.41;1757323;81;21122;-72
2021/05/02 02:24:58;;;;;;;10.05;7.50;;;;;;;12.89;100.00;98773.05;1757240;81;20990;-72
2021/05/02 02:27:30;;;;;;;11.57;7.53;;;;;;;12.84;100.00;98779.61;1757394;81;21009;-74
2021/05/02 02:30:01;;;;;;;11.20;7.95;;;;;;;12.79;100.00;98774.34;1757833;80;21010;-73
2021/05/02 02:32:28;;;;;;;10.08;7.83;;;;;;;12.76;100.00;98775.61;1728655;82;20949;-73
2021/05/02 02:34:58;;;;;;;13.28;7.90;;;;;;;12.72;100.00;98778.27;1728738;82;21068;-73
2021/05/02 02:37:26;;;;;;;13.68;8.08;;;;;;;12.70;100.00;98789.43;1728784;82;21552;-74
2021/05/02 02:40:00;;;;;;;11.35;7.92;;;;;;;12.67;100.00;98788.17;1728723;83;21100;-73
2021/05/02 02:42:28;;;;;;;11.35;7.85;;;;;;;12.66;100.00;98787.14;1728702;81;21152;-73
2021/05/02 02:45:02;;;;;;;13.13;7.78;;;;;;;12.63;100.00;98779.58;1728779;83;20946;-73
2021/05/02 02:47:43;;;;;;;11.88;7.97;;;;;;;12.60;100.00;98779.70;1728752;83;21366;-73
2021/05/02 02:50:14;;;;;;;11.90;8.28;;;;;;;12.58;100.00;98782.00;1728665;83;20961;-73
2021/05/02 02:52:50;;;;;;;8.60;7.17;;;;;;;12.56;100.00;98789.80;1728620;83;21037;-73
2021/05/02 02:55:20;;;;;;;13.58;7.90;;;;;;;12.53;100.00;98784.41;1728529;82;21065;-73
2021/05/02 02:57:59;;;;;;;14.85;8.53;;;;;;;12.53;100.00;98790.49;1728735;82;21045;-73
2021/05/02 03:00:34;;;;;;;10.68;7.95;;;;;;;12.51;100.00;98790.84;1746155;80;21815;-73
2021/05/02 03:03:10;;;;;;;11.12;8.58;;;;;;;12.50;100.00;98782.35;1758462;81;21560;-75
2021/05/02 03:05:37;;;;;;;14.35;8.98;;;;;;;12.50;100.00;98783.73;1759003;81;20938;-75
2021/05/02 03:08:08;;;;;;;15.23;7.90;;;;;;;12.48;100.00;98784.65;1758822;81;21109;-75
2021/05/02 03:10:38;;;;;;;10.95;8.28;;;;;;;12.48;100.00;98787.41;1759081;81;21128;-75
2021/05/02 03:13:06;;;;;;;10.72;7.80;;;;;;;12.48;100.00;98798.41;1758873;81;22487;-73
2021/05/02 03:15:35;;;;;;;14.25;9.28;;;;;;;12.52;100.00;98800.70;1758676;80;21001;-73
2021/05/02 03:18:22;;;;;;;11.63;9.00;;;;;;;12.52;100.00;98792.44;1758902;81;20919;-73
2021/05/02 03:20:58;;;;;;;11.55;7.62;;;;;;;12.54;100.00;98795.66;1758874;81;20923;-77
2021/05/02 03:23:35;;;;;;;11.18;7.47;;;;;;;12.55;100.00;98794.50;1758843;81;21120;-73
2021/05/02 03:26:05;;;;;;;11.55;8.28;;;;;;;12.58;100.00;98794.96;1751384;81;21835;-73
2021/05/02 03:28:56;;;;;;;13.45;8.15;;;;;;;12.59;100.00;98784.98;1758917;81;20923;-73
2021/05/02 03:31:28;;;;;;;12.47;8.15;;;;;;;12.62;100.00;98787.61;1758911;80;21009;-73
2021/05/02 03:34:02;;;;;;;;;;;;;;;12.65;100.00;98792.42;1760292;81;21014;-74
2021/05/02 03:36:38;;;;;;;14.47;8.30;;;;;;;12.67;100.00;98783.24;1758871;81;20163;-74
2021/05/02 03:39:05;;;;;;;15.35;8.55;;;;;;;12.70;100.00;98775.66;1757956;81;21188;-73
2021/05/02 03:41:34;;;;;;;10.90;8.05;;;;;;;12.72;100.00;98767.25;1758813;81;20994;-73
2021/05/02 03:44:03;;;;;;;15.65;8.00;;;;;;;12.77;100.00;98773.89;1758932;81;21489;-73
2021/05/02 03:46:31;;;;;;;15.60;7.90;;;;;;;12.82;100.00;98768.71;1758879;80;20950;-73
2021/05/02 03:49:04;;;;;;;11.75;7.42;;;;;;;12.84;100.00;98765.84;1758855;81;20894;-73
2021/05/02 03:51:35;;;;;;;12.73;8.23;;;;;;;12.90;100.00;98765.81;1758911;81;21357;-74
2021/05/02 03:54:03;;;;;;;14.83;8.13;;;;;;;12.95;100.00;98762.02;1758786;81;21061;-74
2021/05/02 03:56:42;;;;;;;10.78;7.67;;;;;;;13.00;100.00;98757.63;1758773;81;20973;-73
2021/05/02 03:59:17;;;;;;;12.75;8.08;;;;;;;13.04;100.00;98754.98;1758893;81;21056;-74
2021/05/02 04:02:00;;;;;;;12.50;7.75;;;;;;;13.09;100.00;98762.42;1759069;81;21121;-73
2021/05/02 04:04:31;;;;;;;11.28;7.50;;;;;;;13.13;100.00;98750.92;1759141;81;22269;-74
2021/05/02 04:07:04;;;;;;;13.80;7.60;;;;;;;13.17;100.00;98753.23;1759006;81;20988;-73
2021/05/02 04:09:35;;;;;;;12.25;8.18;;;;;;;13.19;100.00;98757.81;1759024;81;21013;-73
2021/05/02 04:12:07;;;;;;;11.30;8.00;;;;;;;13.21;100.00;98755.50;1759006;81;21627;-72
2021/05/02 04:14:35;;;;;;;12.90;8.65;;;;;;;13.22;100.00;98754.93;1758953;80;21120;-75
2021/05/02 04:17:08;;;;;;;12.20;8.88;;;;;;;13.24;100.00;98756.75;1758997;81;21757;-74
2021/05/02 04:19:43;;;;;;;11.48;8.20;;;;;;;13.26;100.00;98750.89;1758773;80;21062;-73
2021/05/02 04:22:15;;;;;;;13.93;8.58;;;;;;;13.29;100.00;98753.72;1756846;81;20947;-74
2021/05/02 04:24:43;;;;;;;12.40;7.87;;;;;;;13.33;100.00;98751.05;1758734;81;21152;-75
2021/05/02 04:27:11;;;;;;;13.43;9.50;;;;;;;13.36;100.00;98753.11;1758540;81;21104;-73
2021/05/02 04:29:41;;;;;;;12.95;8.75;;;;;;;13.40;100.00;98747.91;1757583;81;21207;-74
2021/05/02 04:32:08;;;;;;;15.55;8.70;;;;;;;13.44;100.00;98752.14;1755114;81;21072;-76
2021/05/02 04:34:36;;;;;;;12.98;8.70;;;;;;;13.48;100.00;98754.42;1755194;81;20967;-77
2021/05/02 04:37:03;;;;;;;15.68;8.90;;;;;;;13.55;100.00;98755.98;1755124;81;21192;-76
2021/05/02 04:39:31;;;;;;;13.10;8.38;;;;;;;13.58;100.00;98751.72;1755157;81;21155;-75
2021/05/02 04:41:59;;;;;;;12.95;8.38;;;;;;;13.60;100.00;98751.58;1755230;81;21191;-76
2021/05/02 04:44:26;;;;;;;15.10;8.85;;;;;;;13.63;100.00;98752.25;1755088;81;21036;-76
2021/05/02 04:46:54;;;;;;;12.73;8.40;;;;;;;13.65;100.00;98755.45;1755188;81;21100;-75
2021/05/02 04:49:22;;;;;;;13.22;8.10;;;;;;;13.68;100.00;98755.33;1754999;81;21057;-75
2021/05/02 04:51:49;;;;;;;11.18;7.80;;;;;;;13.70;100.00;98755.20;1756045;80;20927;-75
2021/05/02 04:54:17;;;;;;;13.98;9.03;;;;;;;13.73;100.00;98753.69;1744004;82;21664;-75
2021/05/02 04:56:46;;;;;;;16.40;9.15;;;;;;;13.77;100.00;98759.52;1764632;81;21023;-76
2021/05/02 04:59:13;;;;;;;11.50;7.92;;;;;;;13.82;100.00;98757.06;1767209;81;21009;-74
2021/05/02 05:01:43;;;;;;;14.28;8.35;;;;;;;13.84;100.00;98755.55;1767037;81;21059;-77
2021/05/02 05:04:11;;;;;;;18.10;8.88;;;;;;;13.87;100.00;98755.39;1766122;79;21199;-76
2021/05/02 05:06:38;;;;;;;12.35;7.72;;;;;;;13.89;99.75;98755.25;1765399;81;21371;-75
2021/05/02 05:09:07;;;;;;;13.65;8.35;;;;;;;13.94;99.64;98749.25;1765868;80;21017;-77
2021/05/02 05:11:36;;;;;;;12.53;7.92;;;;;;;13.97;99.45;98742.44;1765821;79;20986;-78
2021/05/02 05:14:04;;;;;;;16.15;7.95;;;;;;;14.03;99.26;98736.87;1766420;80;21560;-75
2021/05/02 05:16:32;;;;;;;11.43;8.45;;;;;;;14.08;98.85;98735.22;1765969;80;21049;-78
2021/05/02 05:19:00;;;;;;;11.75;7.15;;;;;;;14.13;98.36;98743.80;1765910;81;22790;-76
2021/05/02 05:21:29;;;;;;;13.95;7.70;;;;;;;14.18;98.25;98738.80;1765904;81;21120;-79
2021/05/02 05:23:56;;;;;;;12.80;7.70;;;;;;;14.25;97.80;98738.17;1766031;79;21150;-73
2021/05/02 05:26:24;;;;;;;11.88;7.95;;;;;;;14.33;97.23;98743.28;1762828;81;21132;-74
2021/05/02 05:28:51;;;;;;;17.65;8.90;;;;;;;14.38;96.88;98745.18;1766500;80;21073;-75
2021/05/02 05:31:19;;;;;;;12.25;7.75;;;;;;;14.45;96.64;98746.72;1766347;81;21264;-73
2021/05/02 05:33:47;;;;;;;15.85;7.65;;;;;;;14.51;95.74;98744.48;1766086;81;21144;-78
2021/05/02 05:36:16;;;;;;;12.90;7.78;;;;;;;14.57;95.50;98733.95;1765716;79;21022;-78
2021/05/02 05:38:48;;;;;;;12.47;8.23;;;;;;;14.65;95.17;98732.36;1764420;80;21080;-79
2021/05/02 05:41:15;;;;;;;19.00;8.58;;;;;;;14.74;94.67;98726.63;1766438;79;21179;-74
2021/05/02 05:43:43;;;;;;;16.12;8.75;;;;;;;14.83;94.59;98721.69;1766387;80;21626;-77
2021/05/02 05:46:13;;;;;;;14.85;8.33;;;;;;;14.91;93.87;98721.25;1741037;81;20965;-82
2021/05/02 05:48:43;;;;;;;13.83;7.62;;;;;;;14.95;92.98;98720.73;1765634;81;21168;-85
2021/05/02 05:51:12;;;;;;;12.73;8.33;;;;;;;14.96;92.39;98723.72;1765987;81;21552;-76
2021/05/02 05:53:39;;;;;;;12.50;7.67;;;;;;;14.98;92.42;98725.54;1766405;81;21148;-78
2021/05/02 05:56:07;;;;;;;12.98;7.80;;;;;;;14.98;92.46;98727.72;1761154;79;21373;-73
2021/05/02 05:58:37;;;;;;;11.22;8.20;;;;;;;15.02;92.26;98729.94;1756866;81;21005;-77
2021/05/02 06:01:05;;;;;;;14.98;8.50;;;;;;;15.03;91.69;98730.16;1727272;81;21492;-74
2021/05/02 06:03:33;;;;;;;13.10;7.83;;;;;;;15.02;91.02;98725.80;1756803;81;21033;-76
2021/05/02 06:06:01;;;;;;;12.45;7.58;;;;;;;14.97;90.80;98735.79;1757301;81;21068;-75
2021/05/02 06:08:29;;;;;;;13.15;7.62;;;;;;;14.92;91.03;98738.84;1757330;81;22273;-74
2021/05/02 06:10:57;;;;;;;17.15;7.95;;;;;;;14.89;90.83;98742.34;1738415;81;21001;-77
2021/05/02 06:13:26;;;;;;;11.75;8.05;;;;;;;14.86;90.84;98752.73;1757246;81;21104;-80
2021/05/02 06:15:54;;;;;;;12.65;7.62;;;;;;;14.83;90.76;98770.84;1758138;80;21136;-79
2021/05/02 06:18:21;;;;;;;14.53;8.58;;;;;;;14.79;90.80;98768.58;1757560;81;20935;-78
2021/05/02 06:20:49;;;;;;;11.88;8.18;;;;;;;14.75;91.01;98771.05;1757215;81;21497;-76
2021/05/02 06:23:18;;;;;;;12.20;8.38;;;;;;;14.73;91.43;98776.13;1757512;80;21557;-74
2021/05/02 06:25:48;;;;;;;16.20;8.63;;;;;;;14.73;91.55;98777.52;1758059;80;21108;-81
2021/05/02 06:28:17;;;;;;;17.12;9.00;;;;;;;14.74;91.68;98767.48;1767250;81;21132;-76
2021/05/02 06:30:46;;;;;;;20.10;9.00;;;;;;;14.80;91.76;98766.62;1771461;81;21045;-75
2021/05/02 06:33:13;;;;;;;17.12;9.95;;;;;;;14.86;91.30;98769.31;1752053;81;21627;-74
2021/05/02 06:35:41;;;;;;;15.03;9.08;;;;;;;14.92;91.23;98776.73;1748837;81;21080;-73
2021/05/02 06:38:09;;;;;;;16.55;8.88;;;;;;;14.95;90.74;98761.61;1748923;82;21505;-78
2021/05/02 06:40:38;;;;;;;14.75;9.70;;;;;;;14.95;90.01;98758.05;1749006;82;20902;-83
2021/05/02 06:43:08;;;;;;;21.27;9.73;;;;;;;14.91;90.15;98758.55;1748988;82;21104;-80
2021/05/02 06:45:37;;;;;;;15.32;8.88;;;;;;;14.86;90.28;98761.02;1749046;82;22134;-72
2021/05/02 06:48:06;;;;;;;15.95;9.38;;;;;;;14.82;90.69;98760.15;1748842;82;21008;-73
2021/05/02 06:50:33;;;;;;;18.82;10.18;;;;;;;14.79;90.73;98756.73;1748887;80;21084;-73
2021/05/02 06:53:01;;;;;;;19.37;10.75;;;;;;;14.78;90.61;98757.31;1748803;82;21178;-79
2021/05/02 06:55:30;;;;;;;16.10;10.63;;;;;;;14.75;90.59;98766.91;1748793;80;21056;-85
2021/05/02 06:57:59;;;;;;;31.77;15.72;;;;;;;14.71;90.99;98770.97;1748883;81;21374;-85
2021/05/02 07:00:28;;;;;;;25.60;13.18;;;;;;;14.73;91.08;98774.75;1736809;82;21602;-74
2021/05/02 07:02:56;;;;;;;21.85;11.90;;;;;;;14.75;91.22;98775.19;1727733;82;21051;-74
2021/05/02 07:05:23;;;;;;;22.73;13.53;;;;;;;14.75;91.13;98769.66;1738997;81;21093;-74
2021/05/02 07:07:53;;;;;;;21.87;13.30;;;;;;;14.76;91.27;98765.16;1742073;80;21149;-86
2021/05/02 07:10:23;;;;;;;26.20;11.68;;;;;;;14.79;91.37;98765.02;1727635;82;21691;-82
2021/05/02 07:12:51;;;;;;;23.12;12.13;;;;;;;14.79;90.91;98753.97;1757000;81;20986;-74
2021/05/02 07:15:18;;;;;;;23.22;12.82;;;;;;;14.77;91.12;98757.67;1734341;80;21613;-73
2021/05/02 07:17:47;;;;;;;18.90;12.58;;;;;;;14.76;91.22;98751.93;1755475;80;21632;-72
2021/05/02 07:20:16;;;;;;;21.15;14.15;;;;;;;14.75;91.31;98754.47;1709308;82;21122;-77
2021/05/02 07:22:50;;;;;;;23.87;13.13;;;;;;;14.74;91.35;98754.25;1747846;82;21380;-77
2021/05/02 07:25:14;;;;;;;23.55;13.05;;;;;;;14.74;91.33;98750.11;1759500;80;21628;-79
2021/05/02 07:27:41;;;;;;;32.53;20.02;;;;;;;14.74;91.37;98755.63;1758103;80;21142;-73
2021/05/02 07:30:10;;;;;;;25.10;12.98;;;;;;;14.76;91.33;98756.88;1750470;80;21696;-80
2021/05/02 07:32:38;;;;;;;31.02;16.67;;;;;;;14.78;91.35;98760.08;1750542;80;21067;-84
2021/05/02 07:35:07;;;;;;;37.13;17.85;;;;;;;14.82;91.39;98749.09;1737935;81;21372;-76
2021/05/02 07:37:35;;;;;;;22.70;12.73;;;;;;;14.84;91.07;98742.63;1751568;80;20993;-75
2021/05/02 07:40:05;;;;;;;30.40;15.63;;;;;;;14.86;90.78;98743.06;1753162;80;21382;-78
2021/05/02 07:42:36;;;;;;;26.15;13.62;;;;;;;14.86;90.76;98739.72;1740053;80;21119;-87
2021/05/02 07:45:07;;;;;;;21.40;11.85;;;;;;;14.86;90.54;98736.95;1746544;80;21187;-87
2021/05/02 07:47:35;;;;;;;20.65;11.88;;;;;;;14.88;90.56;98738.55;1750851;82;21405;-88
2021/05/02 07:50:08;;;;;;;23.47;12.65;;;;;;;14.89;90.56;98735.42;1720816;81;20964;-87
2021/05/02 07:52:36;;;;;;;20.72;11.33;;;;;;;14.93;90.63;98727.21;1705665;84;21163;-87
2021/05/02 07:55:06;;;;;;;22.40;12.20;;;;;;;14.96;90.53;98721.76;1705330;84;21184;-87
2021/05/02 07:57:33;;;;;;;21.23;13.08;;;;;;;15.00;90.44;98724.02;1705190;82;21217;-87
2021/05/02 08:00:04;;;;;;;21.35;12.90;;;;;;;15.02;90.24;98736.08;1724298;82;21641;-87
2021/05/02 08:02:33;;;;;;;;;;;;;;;15.03;90.12;98729.36;1750269;80;21000;-85
2021/05/02 08:05:01;;;;;;;23.70;12.50;;;;;;;15.06;89.84;98730.02;1749318;82;20141;-85
2021/05/02 08:07:29;;;;;;;19.12;12.43;;;;;;;15.06;89.80;98728.63;1746875;80;21077;-82
2021/05/02 08:09:57;;;;;;;22.60;12.88;;;;;;;15.07;90.04;98729.64;1741442;82;21135;-83
2021/05/02 08:12:25;;;;;;;26.97;13.75;;;;;;;15.10;90.14;98722.01;1758467;81;21358;-85
2021/05/02 08:14:55;;;;;;;29.02;12.90;;;;;;;15.10;90.04;98711.53;1750106;80;21004;-83
2021/05/02 08:17:23;;;;;;;21.95;13.20;;;;;;;15.06;90.16;98712.05;1745078;80;21155;-88
2021/05/02 08:19:52;;;;;;;25.68;13.28;;;;;;;15.01;90.96;98702.70;1749137;82;21020;-79
2021/05/02 08:22:20;;;;;;;19.10;12.28;;;;;;;14.97;91.42;98692.95;1748851;81;21151;-71
2021/05/02 08:24:48;;;;;;;21.07;12.55;;;;;;;14.95;91.87;98688.95;1743996;80;21593;-84
2021/05/02 08:27:16;;;;;;;25.25;13.32;;;;;;;14.95;92.45;98679.28;1780963;80;21005;-82
2021/05/02 08:29:44;;;;;;;22.22;13.53;;;;;;;14.94;92.98;98678.48;1766437;80;21585;-84
2021/05/02 08:32:14;;;;;;;24.80;13.30;;;;;;;14.94;93.27;98681.25;1747005;81;21185;-84
2021/05/02 08:34:42;;;;;;;25.57;12.18;;;;;;;14.94;93.18;98677.69;1745964;81;21581;-80
2021/05/02 08:37:12;;;;;;;18.05;13.22;;;;;;;14.94;93.35;98671.58;1745951;80;21379;-84
2021/05/02 08:39:40;;;;;;;28.38;13.18;;;;;;;14.99;93.83;98669.10;1740108;81;21203;-84
2021/05/02 08:42:08;;;;;;;27.17;14.00;;;;;;;15.05;93.90;98664.84;1744922;80;21167;-80
2021/05/02 08:44:40;;;;;;;22.52;13.55;;;;;;;15.10;94.64;98654.87;1748519;81;21186;-74
2021/05/02 08:47:13;;;;;;;27.45;14.58;;;;;;;15.14;94.80;98655.15;1737748;81;21167;-79
2021/05/02 08:49:42;;;;;;;23.33;12.40;;;;;;;15.19;94.67;98649.31;1722906;82;22301;-80
2021/05/02 08:52:11;;;;;;;21.97;12.25;;;;;;;15.25;94.67;98644.87;1684728;84;21870;-81
2021/05/02 08:54:41;;;;;;;18.35;11.35;;;;;;;15.28;95.01;98634.45;1727290;82;21133;-81
2021/05/02 08:57:10;;;;;;;25.37;13.22;;;;;;;15.34;94.88;98637.13;1751010;81;21485;-79
2021/05/02 08:59:41;;;;;;;23.67;13.72;;;;;;;15.37;94.49;98637.77;1754527;81;21069;-82
2021/05/02 09:02:22;;;;;;;29.90;16.82;;;;;;;15.39;94.78;98632.09;1727022;81;21439;-79
2021/05/02 09:04:59;;;;;;;37.88;19.62;;;;;;;15.35;94.52;98625.70;1730192;81;21119;-80
2021/05/02 09:07:27;;;;;;;26.37;15.15;;;;;;;15.30;94.76;98619.09;1727204;81;21171;-81
2021/05/02 09:09:55;;;;;;;22.85;13.15;;;;;;;15.27;95.17;98613.50;1754356;80;21060;-81
2021/05/02 09:12:26;;;;;;;26.80;16.25;;;;;;;15.25;95.43;98600.63;1727577;81;21147;-79
2021/05/02 09:14:58;;;;;;;31.10;17.75;;;;;;;15.23;95.82;98589.94;1726145;81;20989;-83
2021/05/02 09:17:28;;;;;;;25.80;16.30;;;;;;;15.23;96.01;98580.84;1754511;81;21167;-81
2021/05/02 09:19:58;;;;;;;29.85;16.97;;;;;;;15.23;96.57;98594.09;1720285;81;21159;-76
2021/05/02 09:22:26;;;;;;;28.92;16.97;;;;;;;15.24;96.71;98603.98;1756628;80;21057;-78
2021/05/02 09:25:03;;;;;;;31.68;17.05;;;;;;;15.28;97.02;98592.98;1731831;80;21124;-82
2021/05/02 09:27:48;;;;;;;26.45;14.43;;;;;;;15.34;97.40;98590.12;1895395;75;22074;-79
2021/05/02 09:30:19;;;;;;;22.87;14.93;;;;;;;15.34;97.71;98593.68;1796414;79;20978;-80
2021/05/02 09:32:49;;;;;;;24.00;13.22;;;;;;;15.39;97.84;98597.52;1814274;79;21509;-83
2021/05/02 09:35:31;;;;;;;23.60;16.40;;;;;;;15.44;98.49;98599.17;1814122;79;21057;-82
2021/05/02 09:38:17;;;;;;;21.48;13.70;;;;;;;15.50;98.41;98600.45;1790669;79;20934;-80
2021/05/02 09:40:52;;;;;;;26.20;15.43;;;;;;;15.56;98.63;98603.12;1814315;79;21065;-84
2021/05/02 09:43:35;;;;;;;28.35;15.35;;;;;;;15.61;98.71;98608.34;1814368;78;21120;-80
2021/05/02 09:46:32;;;;;;;20.17;13.03;;;;;;;15.66;98.32;98610.79;1790208;79;21261;-79
2021/05/02 09:49:13;;;;;;;20.52;12.98;;;;;;;15.70;98.18;98624.09;1807821;79;20982;-80
2021/05/02 09:51:49;;;;;;;24.72;15.50;;;;;;;15.73;97.79;98628.09;1789920;80;21034;-77
2021/05/02 09:54:18;;;;;;;24.05;15.40;;;;;;;15.78;97.95;98636.87;1812876;79;21619;-79
2021/05/02 09:56:54;;;;;;;21.95;13.70;;;;;;;15.83;98.09;98638.52;1808029;79;21128;-79
2021/05/02 09:59:35;;;;;;;24.00;14.35;;;;;;;15.82;97.64;98635.54;1790077;79;21358;-79
2021/05/02 10:02:14;;;;;;;24.43;13.60;;;;;;;15.78;97.94;98628.56;1813427;79;21104;-80
2021/05/02 10:04:51;;;;;;;25.05;13.78;;;;;;;15.74;98.29;98647.08;1814356;78;20967;-79
2021/05/02 10:07:25;;;;;;;26.52;14.25;;;;;;;15.71;98.96;98645.06;1790880;80;21469;-79
2021/05/02 10:09:55;;;;;;;23.95;15.25;;;;;;;15.64;98.61;98660.75;1814152;79;21155;-80
2021/05/02 10:12:23;;;;;;;25.08;16.02;;;;;;;15.58;98.91;98660.28;1790740;79;21255;-79
2021/05/02 10:14:53;;;;;;;26.20;14.60;;;;;;;15.54;99.49;98663.55;1803754;79;21540;-81
2021/05/02 10:17:20;;;;;;;21.45;15.48;;;;;;;15.50;100.00;98674.55;1782170;80;21038;-80
2021/05/02 10:19:49;;;;;;;23.73;15.45;;;;;;;15.47;100.00;98666.99;1782154;80;21068;-80
2021/05/02 10:22:18;;;;;;;21.45;15.18;;;;;;;15.44;100.00;98670.50;1782213;80;20926;-80
2021/05/02 10:24:46;;;;;;;24.57;16.48;;;;;;;15.43;100.00;98664.75;1782524;80;21199;-81
2021/05/02 10:27:15;;;;;;;24.25;17.42;;;;;;;15.40;100.00;98661.92;1727394;82;20990;-81
2021/05/02 10:29:49;;;;;;;30.97;18.30;;;;;;;15.37;100.00;98662.66;1753050;81;20997;-81
2021/05/02 10:32:23;;;;;;;28.07;18.05;;;;;;;15.35;100.00;98659.46;1700576;82;21095;-80
2021/05/02 10:34:56;;;;;;;22.93;15.98;;;;;;;15.35;100.00;98653.34;1753238;81;21624;-80
2021/05/02 10:37:34;;;;;;;25.68;16.75;;;;;;;15.39;100.00;98647.30;1725461;81;21429;-82
2021/05/02 10:40:12;;;;;;;26.43;16.60;;;;;;;15.43;100.00;98644.01;1752810;81;21031;-83
2021/05/02 10:42:52;;;;;;;23.32;16.27;;;;;;;15.49;100.00;98645.88;1750126;82;20950;-81
2021/05/02 10:45:35;;;;;;;31.12;19.37;;;;;;;15.55;100.00;98652.70;1774799;80;20925;-79
2021/05/02 10:48:10;;;;;;;30.23;18.07;;;;;;;15.57;100.00;98643.48;1774781;80;20928;-81
2021/05/02 10:50:46;;;;;;;30.27;16.75;;;;;;;15.58;100.00;98635.98;1773969;80;21221;-81
2021/05/02 10:53:23;;;;;;;29.35;19.20;;;;;;;15.57;100.00;98637.14;1774505;80;21909;-81
2021/05/02 10:56:02;;;;;;;32.83;19.50;;;;;;;15.57;100.00;98628.27;1774710;80;21024;-80
2021/05/02 10:58:36;;;;;;;27.90;19.07;;;;;;;15.58;100.00;98629.86;1774740;80;20960;-79
2021/05/02 11:01:11;;;;;;;;;;;;;;;15.59;100.00;98620.39;1777470;80;21553;-80
2021/05/02 11:03:51;;;;;;;31.97;18.95;;;;;;;15.63;100.00;98625.36;1758810;81;21384;-79
2021/05/02 11:06:41;;;;;;;32.70;17.55;;;;;;;15.67;100.00;98624.04;1758650;81;21081;-79
2021/05/02 11:09:12;;;;;;;30.97;17.87;;;;;;;15.74;100.00;98613.08;1758797;81;20934;-79
2021/05/02 11:11:42;;;;;;;37.20;18.27;;;;;;;15.81;100.00;98616.75;1758685;81;21001;-83
2021/05/02 11:17:00;;;;;;;20.95;15.63;;;;;;;15.91;100.00;98604.83;1888697;76;22219;-82
2021/05/02 11:19:36;;;;;;;22.02;14.50;;;;;;;15.89;100.00;98601.05;1775503;80;21572;-83
2021/05/02 11:22:09;;;;;;;28.27;13.98;;;;;;;15.89;98.40;98590.57;1774151;81;22276;-85
2021/05/02 11:24:47;;;;;;;28.27;13.70;;;;;;;15.87;95.61;98589.55;1775533;80;21106;-85
2021/05/02 11:27:38;;;;;;;23.40;12.70;;;;;;;15.88;95.39;98601.42;1773989;81;20943;-80
2021/05/02 11:30:13;;;;;;;21.48;12.13;;;;;;;15.89;94.20;98591.37;1773680;80;21203;-81
2021/05/02 11:32:42;;;;;;;23.42;12.15;;;;;;;15.92;93.88;98585.67;1850051;77;20973;-81
2021/05/02 11:35:15;;;;;;;30.45;13.03;;;;;;;15.96;93.87;98582.36;1849983;77;21185;-80
2021/05/02 11:37:56;;;;;;;28.90;14.05;;;;;;;16.00;93.90;98576.30;1849973;77;21469;-84
2021/05/02 11:40:35;;;;;;;22.70;13.83;;;;;;;16.06;94.07;98577.56;1849972;77;21033;-80